sensor_id;sensor_type;location;lat;lon;timestamp;temperature;humidity
63202;DHT22;49296;48.188;11.566;2022-10-24T00:01:15;17.30;66.83
63202;DHT22;49296;48.188;11.566;2022-10-24T00:03:41;17.39;66.88
63202;DHT22;49296;48.188;11.566;2022-10-24T00:06:08;17.33;66.97
63202;DHT22;49296;48.188;11.566;2022-10-24T00:08:35;17.25;67.15
63202;DHT22;49296;48.188;11.566;2022-10-24T00:11:06;17.23;67.31
63202;DHT22;49296;48.188;11.566;2022-10-24T00:13:34;17.26;67.17
63202;DHT22;49296;48.188;11.566;2022-10-24T00:16:00;17.22;67.86
63202;DHT22;49296;48.188;11.566;2022-10-24T00:18:27;17.26;68.14
63202;DHT22;49296;48.188;11.566;2022-10-24T00:20:53;17.15;68.83
63202;DHT22;49296;48.188;11.566;2022-10-24T00:23:20;17.11;68.29
63202;DHT22;49296;48.188;11.566;2022-10-24T00:25:46;17.07;69.41
63202;DHT22;49296;48.188;11.566;2022-10-24T00:28:13;17.15;69.65
63202;DHT22;49296;48.188;11.566;2022-10-24T00:30:40;17.03;70.19
63202;DHT22;49296;48.188;11.566;2022-10-24T00:33:07;16.84;70.56
63202;DHT22;49296;48.188;11.566;2022-10-24T00:35:33;16.67;71.86
63202;DHT22;49296;48.188;11.566;2022-10-24T00:38:00;16.67;72.34
63202;DHT22;49296;48.188;11.566;2022-10-24T00:40:26;16.74;73.13
63202;DHT22;49296;48.188;11.566;2022-10-24T00:42:53;16.57;74.09
63202;DHT22;49296;48.188;11.566;2022-10-24T00:45:36;16.41;74.91
63202;DHT22;49296;48.188;11.566;2022-10-24T00:48:09;16.49;74.65
63202;DHT22;49296;48.188;11.566;2022-10-24T00:50:38;16.28;74.78
63202;DHT22;49296;48.188;11.566;2022-10-24T00:53:04;16.28;75.34
63202;DHT22;49296;48.188;11.566;2022-10-24T00:55:30;16.29;75.84
63202;DHT22;49296;48.188;11.566;2022-10-24T00:57:57;16.21;75.95
63202;DHT22;49296;48.188;11.566;2022-10-24T01:00:27;16.19;76.66
63202;DHT22;49296;48.188;11.566;2022-10-24T01:02:54;16.19;76.79
63202;DHT22;49296;48.188;11.566;2022-10-24T01:05:23;16.19;76.96
63202;DHT22;49296;48.188;11.566;2022-10-24T01:07:52;16.12;77.37
63202;DHT22;49296;48.188;11.566;2022-10-24T01:10:26;16.12;77.57
63202;DHT22;49296;48.188;11.566;2022-10-24T01:12:58;16.08;77.77
63202;DHT22;49296;48.188;11.566;2022-10-24T01:15:28;16.15;78.03
63202;DHT22;49296;48.188;11.566;2022-10-24T01:17:59;16.12;77.90
63202;DHT22;49296;48.188;11.566;2022-10-24T01:20:33;16.19;77.75
63202;DHT22;49296;48.188;11.566;2022-10-24T01:23:14;16.16;78.00
63202;DHT22;49296;48.188;11.566;2022-10-24T01:25:50;15.87;78.99
63202;DHT22;49296;48.188;11.566;2022-10-24T01:28:21;15.88;79.29
63202;DHT22;49296;48.188;11.566;2022-10-24T01:30:51;15.88;79.15
63202;DHT22;49296;48.188;11.566;2022-10-24T01:33:19;16.00;78.78
63202;DHT22;49296;48.188;11.566;2022-10-24T01:35:49;16.01;78.57
63202;DHT22;49296;48.188;11.566;2022-10-24T01:38:18;15.96;79.29
63202;DHT22;49296;48.188;11.566;2022-10-24T01:40:47;16.05;78.53
63202;DHT22;49296;48.188;11.566;2022-10-24T01:43:16;16.08;78.73
63202;DHT22;49296;48.188;11.566;2022-10-24T01:45:44;16.04;78.98
63202;DHT22;49296;48.188;11.566;2022-10-24T01:48:14;16.01;78.50
63202;DHT22;49296;48.188;11.566;2022-10-24T01:50:42;16.11;78.29
63202;DHT22;49296;48.188;11.566;2022-10-24T01:53:10;16.01;78.37
63202;DHT22;49296;48.188;11.566;2022-10-24T01:55:37;15.94;78.61
63202;DHT22;49296;48.188;11.566;2022-10-24T01:58:05;15.93;78.80
63202;DHT22;49296;48.188;11.566;2022-10-24T02:00:31;15.94;78.37
63202;DHT22;49296;48.188;11.566;2022-10-24T02:02:59;15.90;78.32
63202;DHT22;49296;48.188;11.566;2022-10-24T02:05:28;15.84;78.54
63202;DHT22;49296;48.188;11.566;2022-10-24T02:07:57;15.87;78.05
63202;DHT22;49296;48.188;11.566;2022-10-24T02:10:25;15.93;78.22
63202;DHT22;49296;48.188;11.566;2022-10-24T02:12:54;15.90;78.32
63202;DHT22;49296;48.188;11.566;2022-10-24T02:15:22;15.98;77.67
63202;DHT22;49296;48.188;11.566;2022-10-24T02:17:50;16.02;77.62
63202;DHT22;49296;48.188;11.566;2022-10-24T02:20:16;15.96;77.89
63202;DHT22;49296;48.188;11.566;2022-10-24T02:22:46;15.97;77.38
63202;DHT22;49296;48.188;11.566;2022-10-24T02:25:16;15.97;78.02
63202;DHT22;49296;48.188;11.566;2022-10-24T02:27:45;16.08;77.65
63202;DHT22;49296;48.188;11.566;2022-10-24T02:30:13;16.07;78.12
63202;DHT22;49296;48.188;11.566;2022-10-24T02:32:41;16.01;77.76
63202;DHT22;49296;48.188;11.566;2022-10-24T02:35:08;15.98;77.33
63202;DHT22;49296;48.188;11.566;2022-10-24T02:37:36;15.87;78.17
63202;DHT22;49296;48.188;11.566;2022-10-24T02:40:07;15.88;78.40
63202;DHT22;49296;48.188;11.566;2022-10-24T02:42:34;15.97;78.25
63202;DHT22;49296;48.188;11.566;2022-10-24T02:45:01;15.91;77.98
63202;DHT22;49296;48.188;11.566;2022-10-24T02:47:28;16.00;78.11
63202;DHT22;49296;48.188;11.566;2022-10-24T02:49:56;15.97;77.90
63202;DHT22;49296;48.188;11.566;2022-10-24T02:52:23;15.98;77.49
63202;DHT22;49296;48.188;11.566;2022-10-24T02:54:49;15.98;77.54
63202;DHT22;49296;48.188;11.566;2022-10-24T02:57:17;15.97;77.78
63202;DHT22;49296;48.188;11.566;2022-10-24T02:59:45;15.96;77.98
63202;DHT22;49296;48.188;11.566;2022-10-24T03:02:12;16.01;77.76
63202;DHT22;49296;48.188;11.566;2022-10-24T03:04:38;16.02;78.01
63202;DHT22;49296;48.188;11.566;2022-10-24T03:07:05;16.11;77.43
63202;DHT22;49296;48.188;11.566;2022-10-24T03:09:35;16.00;77.95
63202;DHT22;49296;48.188;11.566;2022-10-24T03:12:01;16.09;77.68
63202;DHT22;49296;48.188;11.566;2022-10-24T03:14:29;16.15;77.44
63202;DHT22;49296;48.188;11.566;2022-10-24T03:16:55;16.14;77.52
63202;DHT22;49296;48.188;11.566;2022-10-24T03:19:22;16.04;77.80
63202;DHT22;49296;48.188;11.566;2022-10-24T03:21:48;16.11;77.58
63202;DHT22;49296;48.188;11.566;2022-10-24T03:24:15;16.11;77.30
63202;DHT22;49296;48.188;11.566;2022-10-24T03:26:42;16.19;77.23
63202;DHT22;49296;48.188;11.566;2022-10-24T03:29:09;16.15;77.33
63202;DHT22;49296;48.188;11.566;2022-10-24T03:31:39;16.14;77.64
63202;DHT22;49296;48.188;11.566;2022-10-24T03:34:06;16.15;77.29
63202;DHT22;49296;48.188;11.566;2022-10-24T03:36:32;15.86;78.04
63202;DHT22;49296;48.188;11.566;2022-10-24T03:38:59;15.76;78.37
63202;DHT22;49296;48.188;11.566;2022-10-24T03:41:25;15.71;78.81
63202;DHT22;49296;48.188;11.566;2022-10-24T03:43:51;15.67;78.84
63202;DHT22;49296;48.188;11.566;2022-10-24T03:46:18;15.62;78.99
63202;DHT22;49296;48.188;11.566;2022-10-24T03:48:46;15.69;78.65
63202;DHT22;49296;48.188;11.566;2022-10-24T03:51:12;15.59;79.00
63202;DHT22;49296;48.188;11.566;2022-10-24T03:53:39;15.66;78.89
63202;DHT22;49296;48.188;11.566;2022-10-24T03:56:06;15.79;78.34
63202;DHT22;49296;48.188;11.566;2022-10-24T03:58:32;15.76;78.30
63202;DHT22;49296;48.188;11.566;2022-10-24T04:00:59;15.81;78.45
63202;DHT22;49296;48.188;11.566;2022-10-24T04:03:26;15.69;78.68
63202;DHT22;49296;48.188;11.566;2022-10-24T04:05:54;15.70;78.82
63202;DHT22;49296;48.188;11.566;2022-10-24T04:08:20;15.69;78.62
63202;DHT22;49296;48.188;11.566;2022-10-24T04:10:47;15.62;78.81
63202;DHT22;49296;48.188;11.566;2022-10-24T04:13:14;15.60;79.05
63202;DHT22;49296;48.188;11.566;2022-10-24T04:15:40;15.73;78.87
63202;DHT22;49296;48.188;11.566;2022-10-24T04:18:06;15.77;79.19
63202;DHT22;49296;48.188;11.566;2022-10-24T04:20:34;15.71;79.49
63202;DHT22;49296;48.188;11.566;2022-10-24T04:23:02;15.81;78.67
63202;DHT22;49296;48.188;11.566;2022-10-24T04:25:28;15.81;78.29
63202;DHT22;49296;48.188;11.566;2022-10-24T04:27:55;15.76;78.53
63202;DHT22;49296;48.188;11.566;2022-10-24T04:30:21;15.59;79.17
63202;DHT22;49296;48.188;11.566;2022-10-24T04:32:48;15.66;79.31
63202;DHT22;49296;48.188;11.566;2022-10-24T04:35:14;15.64;78.93
63202;DHT22;49296;48.188;11.566;2022-10-24T04:37:41;15.73;78.81
63202;DHT22;49296;48.188;11.566;2022-10-24T04:40:09;15.90;78.64
63202;DHT22;49296;48.188;11.566;2022-10-24T04:42:36;16.01;78.31
63202;DHT22;49296;48.188;11.566;2022-10-24T04:45:02;16.02;78.39
63202;DHT22;49296;48.188;11.566;2022-10-24T04:47:29;16.01;78.70
63202;DHT22;49296;48.188;11.566;2022-10-24T04:49:55;16.12;78.59
63202;DHT22;49296;48.188;11.566;2022-10-24T04:52:22;16.02;78.48
63202;DHT22;49296;48.188;11.566;2022-10-24T04:54:48;16.00;78.50
63202;DHT22;49296;48.188;11.566;2022-10-24T04:57:16;16.05;78.49
63202;DHT22;49296;48.188;11.566;2022-10-24T04:59:44;16.08;78.53
63202;DHT22;49296;48.188;11.566;2022-10-24T05:02:11;16.01;78.64
63202;DHT22;49296;48.188;11.566;2022-10-24T05:04:37;16.05;78.57
63202;DHT22;49296;48.188;11.566;2022-10-24T05:07:04;16.14;78.51
63202;DHT22;49296;48.188;11.566;2022-10-24T05:09:30;16.14;78.65
63202;DHT22;49296;48.188;11.566;2022-10-24T05:11:57;16.16;78.36
63202;DHT22;49296;48.188;11.566;2022-10-24T05:14:25;16.12;78.42
63202;DHT22;49296;48.188;11.566;2022-10-24T05:16:51;16.08;78.37
63202;DHT22;49296;48.188;11.566;2022-10-24T05:19:18;15.97;78.70
63202;DHT22;49296;48.188;11.566;2022-10-24T05:21:44;16.02;78.78
63202;DHT22;49296;48.188;11.566;2022-10-24T05:24:11;16.00;78.69
63202;DHT22;49296;48.188;11.566;2022-10-24T05:26:37;15.96;78.93
63202;DHT22;49296;48.188;11.566;2022-10-24T05:29:04;15.90;79.16
63202;DHT22;49296;48.188;11.566;2022-10-24T05:31:32;15.94;79.11
63202;DHT22;49296;48.188;11.566;2022-10-24T05:33:59;15.96;79.15
63202;DHT22;49296;48.188;11.566;2022-10-24T05:36:25;16.02;78.96
63202;DHT22;49296;48.188;11.566;2022-10-24T05:38:52;15.94;79.01
63202;DHT22;49296;48.188;11.566;2022-10-24T05:41:18;15.91;78.84
63202;DHT22;49296;48.188;11.566;2022-10-24T05:43:45;15.90;78.81
63202;DHT22;49296;48.188;11.566;2022-10-24T05:46:11;15.93;78.52
63202;DHT22;49296;48.188;11.566;2022-10-24T05:48:39;15.97;78.57
63202;DHT22;49296;48.188;11.566;2022-10-24T05:51:05;15.94;78.50
63202;DHT22;49296;48.188;11.566;2022-10-24T05:53:32;15.80;78.78
63202;DHT22;49296;48.188;11.566;2022-10-24T05:55:58;15.77;78.81
63202;DHT22;49296;48.188;11.566;2022-10-24T05:58:25;15.70;79.11
63202;DHT22;49296;48.188;11.566;2022-10-24T06:00:51;15.71;78.85
63202;DHT22;49296;48.188;11.566;2022-10-24T06:03:18;15.66;79.15
63202;DHT22;49296;48.188;11.566;2022-10-24T06:05:46;15.63;78.79
63202;DHT22;49296;48.188;11.566;2022-10-24T06:08:12;15.60;78.96
63202;DHT22;49296;48.188;11.566;2022-10-24T06:10:38;15.63;79.01
63202;DHT22;49296;48.188;11.566;2022-10-24T06:13:05;15.60;78.71
63202;DHT22;49296;48.188;11.566;2022-10-24T06:15:32;15.63;78.91
63202;DHT22;49296;48.188;11.566;2022-10-24T06:18:02;15.66;78.87
63202;DHT22;49296;48.188;11.566;2022-10-24T06:20:29;15.64;78.63
63202;DHT22;49296;48.188;11.566;2022-10-24T06:22:57;15.66;78.77
63202;DHT22;49296;48.188;11.566;2022-10-24T06:25:23;15.67;78.36
63202;DHT22;49296;48.188;11.566;2022-10-24T06:27:50;15.67;78.04
63202;DHT22;49296;48.188;11.566;2022-10-24T06:30:16;15.81;77.95
63202;DHT22;49296;48.188;11.566;2022-10-24T06:32:43;15.81;77.76
63202;DHT22;49296;48.188;11.566;2022-10-24T06:35:09;15.94;77.60
63202;DHT22;49296;48.188;11.566;2022-10-24T06:37:37;15.94;77.59
63202;DHT22;49296;48.188;11.566;2022-10-24T06:40:05;16.02;77.29
63202;DHT22;49296;48.188;11.566;2022-10-24T06:42:32;16.07;77.21
63202;DHT22;49296;48.188;11.566;2022-10-24T06:44:58;16.11;76.98
63202;DHT22;49296;48.188;11.566;2022-10-24T06:47:25;16.09;77.06
63202;DHT22;49296;48.188;11.566;2022-10-24T06:49:51;16.18;76.98
63202;DHT22;49296;48.188;11.566;2022-10-24T06:52:18;16.15;77.18
63202;DHT22;49296;48.188;11.566;2022-10-24T06:54:44;16.07;77.26
63202;DHT22;49296;48.188;11.566;2022-10-24T06:57:12;16.14;77.24
63202;DHT22;49296;48.188;11.566;2022-10-24T06:59:38;16.15;77.25
63202;DHT22;49296;48.188;11.566;2022-10-24T07:02:05;16.25;76.85
63202;DHT22;49296;48.188;11.566;2022-10-24T07:04:31;16.33;77.24
63202;DHT22;49296;48.188;11.566;2022-10-24T07:06:58;16.38;76.72
63202;DHT22;49296;48.188;11.566;2022-10-24T07:09:24;16.16;77.31
63202;DHT22;49296;48.188;11.566;2022-10-24T07:11:53;16.08;77.83
63202;DHT22;49296;48.188;11.566;2022-10-24T07:14:20;16.09;77.97
63202;DHT22;49296;48.188;11.566;2022-10-24T07:16:47;16.00;78.12
63202;DHT22;49296;48.188;11.566;2022-10-24T07:19:13;16.02;77.94
63202;DHT22;49296;48.188;11.566;2022-10-24T07:21:40;16.08;78.02
63202;DHT22;49296;48.188;11.566;2022-10-24T07:24:06;16.24;77.74
63202;DHT22;49296;48.188;11.566;2022-10-24T07:26:33;16.04;77.96
63202;DHT22;49296;48.188;11.566;2022-10-24T07:29:00;16.12;77.97
63202;DHT22;49296;48.188;11.566;2022-10-24T07:31:29;16.14;77.85
63202;DHT22;49296;48.188;11.566;2022-10-24T07:33:57;16.01;77.99
63202;DHT22;49296;48.188;11.566;2022-10-24T07:36:24;16.08;77.73
63202;DHT22;49296;48.188;11.566;2022-10-24T07:38:51;16.16;77.54
63202;DHT22;49296;48.188;11.566;2022-10-24T07:41:19;16.30;77.31
63202;DHT22;49296;48.188;11.566;2022-10-24T07:43:45;16.35;77.36
63202;DHT22;49296;48.188;11.566;2022-10-24T07:46:12;16.38;77.17
63202;DHT22;49296;48.188;11.566;2022-10-24T07:48:41;16.29;77.44
63202;DHT22;49296;48.188;11.566;2022-10-24T07:51:08;16.32;77.20
63202;DHT22;49296;48.188;11.566;2022-10-24T07:53:35;16.26;77.40
63202;DHT22;49296;48.188;11.566;2022-10-24T07:56:01;16.21;76.97
63202;DHT22;49296;48.188;11.566;2022-10-24T07:58:30;16.15;77.18
63202;DHT22;49296;48.188;11.566;2022-10-24T08:01:01;16.05;77.43
63202;DHT22;49296;48.188;11.566;2022-10-24T08:03:27;16.04;77.36
63202;DHT22;49296;48.188;11.566;2022-10-24T08:05:55;15.97;77.55
63202;DHT22;49296;48.188;11.566;2022-10-24T08:08:21;15.94;77.62
63202;DHT22;49296;48.188;11.566;2022-10-24T08:10:48;15.96;77.56
63202;DHT22;49296;48.188;11.566;2022-10-24T08:13:14;16.01;77.47
63202;DHT22;49296;48.188;11.566;2022-10-24T08:15:41;15.96;77.27
63202;DHT22;49296;48.188;11.566;2022-10-24T08:18:07;15.97;77.49
63202;DHT22;49296;48.188;11.566;2022-10-24T08:20:34;16.04;77.23
63202;DHT22;49296;48.188;11.566;2022-10-24T08:23:01;16.09;77.14
63202;DHT22;49296;48.188;11.566;2022-10-24T08:25:28;16.21;76.85
63202;DHT22;49296;48.188;11.566;2022-10-24T08:27:54;16.30;76.58
63202;DHT22;49296;48.188;11.566;2022-10-24T08:30:21;16.25;76.37
63202;DHT22;49296;48.188;11.566;2022-10-24T08:32:48;16.21;76.44
63202;DHT22;49296;48.188;11.566;2022-10-24T08:35:15;16.25;76.29
63202;DHT22;49296;48.188;11.566;2022-10-24T08:37:42;16.36;76.06
63202;DHT22;49296;48.188;11.566;2022-10-24T08:40:12;16.50;75.86
63202;DHT22;49296;48.188;11.566;2022-10-24T08:42:40;16.63;75.74
63202;DHT22;49296;48.188;11.566;2022-10-24T08:45:09;16.71;75.70
63202;DHT22;49296;48.188;11.566;2022-10-24T08:47:38;16.73;75.59
63202;DHT22;49296;48.188;11.566;2022-10-24T08:50:08;16.77;75.34
63202;DHT22;49296;48.188;11.566;2022-10-24T08:52:37;16.78;75.47
63202;DHT22;49296;48.188;11.566;2022-10-24T08:55:09;16.60;76.00
63202;DHT22;49296;48.188;11.566;2022-10-24T08:57:39;16.59;75.45
63202;DHT22;49296;48.188;11.566;2022-10-24T09:00:11;16.59;75.02
63202;DHT22;49296;48.188;11.566;2022-10-24T09:02:41;16.73;74.95
63202;DHT22;49296;48.188;11.566;2022-10-24T09:05:19;16.59;74.93
63202;DHT22;49296;48.188;11.566;2022-10-24T09:07:46;16.61;75.27
63202;DHT22;49296;48.188;11.566;2022-10-24T09:10:16;16.63;75.35
63202;DHT22;49296;48.188;11.566;2022-10-24T09:12:45;16.57;75.49
63202;DHT22;49296;48.188;11.566;2022-10-24T09:15:13;16.39;76.34
63202;DHT22;49296;48.188;11.566;2022-10-24T09:17:40;16.39;76.76
63202;DHT22;49296;48.188;11.566;2022-10-24T09:20:14;16.48;76.49
63202;DHT22;49296;48.188;11.566;2022-10-24T09:22:47;16.41;76.52
63202;DHT22;49296;48.188;11.566;2022-10-24T09:25:14;16.48;76.80
63202;DHT22;49296;48.188;11.566;2022-10-24T09:27:41;16.41;77.37
63202;DHT22;49296;48.188;11.566;2022-10-24T09:30:13;16.49;77.40
63202;DHT22;49296;48.188;11.566;2022-10-24T09:32:40;16.43;77.27
63202;DHT22;49296;48.188;11.566;2022-10-24T09:35:10;16.39;77.35
63202;DHT22;49296;48.188;11.566;2022-10-24T09:37:38;16.36;77.04
63202;DHT22;49296;48.188;11.566;2022-10-24T09:40:07;16.36;77.15
63202;DHT22;49296;48.188;11.566;2022-10-24T09:42:34;16.39;76.99
63202;DHT22;49296;48.188;11.566;2022-10-24T09:45:15;16.32;76.84
63202;DHT22;49296;48.188;11.566;2022-10-24T09:47:44;16.28;77.59
63202;DHT22;49296;48.188;11.566;2022-10-24T09:50:17;16.32;77.42
63202;DHT22;49296;48.188;11.566;2022-10-24T09:52:45;16.33;77.77
63202;DHT22;49296;48.188;11.566;2022-10-24T09:55:14;16.38;77.61
63202;DHT22;49296;48.188;11.566;2022-10-24T09:57:41;16.33;78.34
63202;DHT22;49296;48.188;11.566;2022-10-24T10:00:19;16.30;78.62
63202;DHT22;49296;48.188;11.566;2022-10-24T10:02:56;16.25;78.58
63202;DHT22;49296;48.188;11.566;2022-10-24T10:05:23;16.39;78.53
63202;DHT22;49296;48.188;11.566;2022-10-24T10:07:50;16.21;78.48
63202;DHT22;49296;48.188;11.566;2022-10-24T10:10:27;16.22;78.90
63202;DHT22;49296;48.188;11.566;2022-10-24T10:12:55;16.15;78.73
63202;DHT22;49296;48.188;11.566;2022-10-24T10:15:24;16.16;78.47
63202;DHT22;49296;48.188;11.566;2022-10-24T10:17:53;16.01;79.26
63202;DHT22;49296;48.188;11.566;2022-10-24T10:20:23;16.16;78.88
63202;DHT22;49296;48.188;11.566;2022-10-24T10:22:52;16.29;78.62
63202;DHT22;49296;48.188;11.566;2022-10-24T10:25:26;16.36;78.71
63202;DHT22;49296;48.188;11.566;2022-10-24T10:27:53;16.22;78.99
63202;DHT22;49296;48.188;11.566;2022-10-24T10:30:20;16.33;79.16
63202;DHT22;49296;48.188;11.566;2022-10-24T10:32:50;16.00;79.85
63202;DHT22;49296;48.188;11.566;2022-10-24T10:35:19;16.00;80.37
63202;DHT22;49296;48.188;11.566;2022-10-24T10:37:49;15.93;80.70
63202;DHT22;49296;48.188;11.566;2022-10-24T10:40:23;15.98;80.67
63202;DHT22;49296;48.188;11.566;2022-10-24T10:43:03;15.94;80.81
63202;DHT22;49296;48.188;11.566;2022-10-24T10:45:33;15.93;80.94
63202;DHT22;49296;48.188;11.566;2022-10-24T10:48:03;15.70;81.02
63202;DHT22;49296;48.188;11.566;2022-10-24T10:50:34;15.66;81.64
63202;DHT22;49296;48.188;11.566;2022-10-24T10:53:07;15.57;81.63
63202;DHT22;49296;48.188;11.566;2022-10-24T10:55:37;15.49;82.27
63202;DHT22;49296;48.188;11.566;2022-10-24T10:58:07;15.39;82.26
63202;DHT22;49296;48.188;11.566;2022-10-24T11:00:38;15.40;82.73
63202;DHT22;49296;48.188;11.566;2022-10-24T11:03:09;15.38;82.84
63202;DHT22;49296;48.188;11.566;2022-10-24T11:05:43;15.39;82.91
63202;DHT22;49296;48.188;11.566;2022-10-24T11:10:59;15.27;83.69
63202;DHT22;49296;48.188;11.566;2022-10-24T11:13:28;15.18;83.97
63202;DHT22;49296;48.188;11.566;2022-10-24T11:15:57;15.24;83.77
63202;DHT22;49296;48.188;11.566;2022-10-24T11:18:27;15.29;83.85
63202;DHT22;49296;48.188;11.566;2022-10-24T11:20:55;15.31;83.26
63202;DHT22;49296;48.188;11.566;2022-10-24T11:23:24;15.19;83.65
63202;DHT22;49296;48.188;11.566;2022-10-24T11:25:55;15.21;83.55
63202;DHT22;49296;48.188;11.566;2022-10-24T11:28:25;15.12;83.79
63202;DHT22;49296;48.188;11.566;2022-10-24T11:30:54;15.05;83.53
63202;DHT22;49296;48.188;11.566;2022-10-24T11:33:23;14.85;84.33
63202;DHT22;49296;48.188;11.566;2022-10-24T11:35:54;14.84;84.55
63202;DHT22;49296;48.188;11.566;2022-10-24T11:38:24;14.94;84.26
63202;DHT22;49296;48.188;11.566;2022-10-24T11:40:52;14.90;84.21
63202;DHT22;49296;48.188;11.566;2022-10-24T11:43:22;14.81;84.30
63202;DHT22;49296;48.188;11.566;2022-10-24T11:45:52;14.94;84.33
63202;DHT22;49296;48.188;11.566;2022-10-24T11:48:21;14.88;84.25
63202;DHT22;49296;48.188;11.566;2022-10-24T11:50:51;14.93;84.21
63202;DHT22;49296;48.188;11.566;2022-10-24T11:53:38;14.88;84.37
63202;DHT22;49296;48.188;11.566;2022-10-24T11:56:09;14.76;84.85
63202;DHT22;49296;48.188;11.566;2022-10-24T11:58:45;14.83;84.54
63202;DHT22;49296;48.188;11.566;2022-10-24T12:01:21;14.91;84.33
63202;DHT22;49296;48.188;11.566;2022-10-24T12:04:07;14.84;84.00
63202;DHT22;49296;48.188;11.566;2022-10-24T12:06:42;14.83;84.44
63202;DHT22;49296;48.188;11.566;2022-10-24T12:09:22;14.83;84.89
63202;DHT22;49296;48.188;11.566;2022-10-24T12:11:55;14.77;84.85
63202;DHT22;49296;48.188;11.566;2022-10-24T12:14:26;14.80;85.18
63202;DHT22;49296;48.188;11.566;2022-10-24T12:17:04;14.87;84.72
63202;DHT22;49296;48.188;11.566;2022-10-24T12:19:37;14.94;84.55
63202;DHT22;49296;48.188;11.566;2022-10-24T12:22:04;14.84;84.13
63202;DHT22;49296;48.188;11.566;2022-10-24T12:24:31;14.79;84.48
63202;DHT22;49296;48.188;11.566;2022-10-24T12:27:00;14.80;84.59
63202;DHT22;49296;48.188;11.566;2022-10-24T12:29:28;14.81;84.16
63202;DHT22;49296;48.188;11.566;2022-10-24T12:31:56;14.85;84.19
63202;DHT22;49296;48.188;11.566;2022-10-24T12:34:42;14.83;84.28
63202;DHT22;49296;48.188;11.566;2022-10-24T12:37:11;14.79;84.35
63202;DHT22;49296;48.188;11.566;2022-10-24T12:39:39;14.87;83.84
63202;DHT22;49296;48.188;11.566;2022-10-24T12:42:11;14.81;83.62
63202;DHT22;49296;48.188;11.566;2022-10-24T12:44:42;14.70;84.55
63202;DHT22;49296;48.188;11.566;2022-10-24T12:49:56;14.94;83.54
63202;DHT22;49296;48.188;11.566;2022-10-24T12:57:49;14.81;83.67
63202;DHT22;49296;48.188;11.566;2022-10-24T13:00:20;14.77;83.49
63202;DHT22;49296;48.188;11.566;2022-10-24T13:02:50;14.94;83.39
63202;DHT22;49296;48.188;11.566;2022-10-24T13:05:29;14.94;82.99
63202;DHT22;49296;48.188;11.566;2022-10-24T13:08:04;14.94;82.94
63202;DHT22;49296;48.188;11.566;2022-10-24T13:10:36;14.98;83.13
63202;DHT22;49296;48.188;11.566;2022-10-24T13:15:52;14.83;82.81
63202;DHT22;49296;48.188;11.566;2022-10-24T13:18:24;14.83;83.38
63202;DHT22;49296;48.188;11.566;2022-10-24T13:21:06;14.87;83.33
63202;DHT22;49296;48.188;11.566;2022-10-24T13:23:33;14.93;83.13
63202;DHT22;49296;48.188;11.566;2022-10-24T13:26:00;15.01;82.84
63202;DHT22;49296;48.188;11.566;2022-10-24T13:28:34;14.97;83.09
63202;DHT22;49296;48.188;11.566;2022-10-24T13:33:48;14.84;83.05
63202;DHT22;49296;48.188;11.566;2022-10-24T13:36:17;14.87;83.43
63202;DHT22;49296;48.188;11.566;2022-10-24T13:38:48;14.98;82.79
63202;DHT22;49296;48.188;11.566;2022-10-24T13:41:22;15.04;82.85
63202;DHT22;49296;48.188;11.566;2022-10-24T13:43:51;15.12;82.53
63202;DHT22;49296;48.188;11.566;2022-10-24T13:46:20;15.18;82.53
63202;DHT22;49296;48.188;11.566;2022-10-24T13:48:48;15.24;81.97
63202;DHT22;49296;48.188;11.566;2022-10-24T13:51:19;15.24;81.86
63202;DHT22;49296;48.188;11.566;2022-10-24T13:53:47;15.24;81.82
63202;DHT22;49296;48.188;11.566;2022-10-24T13:56:15;15.28;81.42
63202;DHT22;49296;48.188;11.566;2022-10-24T13:58:42;15.25;81.76
63202;DHT22;49296;48.188;11.566;2022-10-24T14:01:10;15.10;81.86
63202;DHT22;49296;48.188;11.566;2022-10-24T14:03:40;15.18;81.98
63202;DHT22;49296;48.188;11.566;2022-10-24T14:06:07;15.18;81.38
63202;DHT22;49296;48.188;11.566;2022-10-24T14:08:36;15.15;81.48
63202;DHT22;49296;48.188;11.566;2022-10-24T14:11:04;15.17;81.43
63202;DHT22;49296;48.188;11.566;2022-10-24T14:13:32;15.18;81.35
63202;DHT22;49296;48.188;11.566;2022-10-24T14:16:00;15.14;81.07
63202;DHT22;49296;48.188;11.566;2022-10-24T14:18:28;15.07;81.54
63202;DHT22;49296;48.188;11.566;2022-10-24T14:20:55;14.83;81.87
63202;DHT22;49296;48.188;11.566;2022-10-24T14:23:23;14.76;82.18
63202;DHT22;49296;48.188;11.566;2022-10-24T14:25:53;14.74;81.72
63202;DHT22;49296;48.188;11.566;2022-10-24T14:28:22;14.85;81.76
63202;DHT22;49296;48.188;11.566;2022-10-24T14:30:51;14.90;81.48
63202;DHT22;49296;48.188;11.566;2022-10-24T14:33:19;14.83;81.76
63202;DHT22;49296;48.188;11.566;2022-10-24T14:35:47;14.83;81.55
63202;DHT22;49296;48.188;11.566;2022-10-24T14:38:14;14.77;81.56
63202;DHT22;49296;48.188;11.566;2022-10-24T14:40:41;14.93;81.78
63202;DHT22;49296;48.188;11.566;2022-10-24T14:43:10;15.00;81.63
63202;DHT22;49296;48.188;11.566;2022-10-24T14:45:38;14.95;81.35
63202;DHT22;49296;48.188;11.566;2022-10-24T14:48:12;14.95;81.55
63202;DHT22;49296;48.188;11.566;2022-10-24T14:50:43;14.95;81.54
63202;DHT22;49296;48.188;11.566;2022-10-24T14:53:19;14.91;81.43
63202;DHT22;49296;48.188;11.566;2022-10-24T14:55:48;14.91;81.51
63202;DHT22;49296;48.188;11.566;2022-10-24T14:58:20;15.00;81.05
63202;DHT22;49296;48.188;11.566;2022-10-24T15:00:48;14.93;80.95
63202;DHT22;49296;48.188;11.566;2022-10-24T15:03:14;15.01;81.01
63202;DHT22;49296;48.188;11.566;2022-10-24T15:05:41;14.97;81.04
63202;DHT22;49296;48.188;11.566;2022-10-24T15:08:18;14.94;80.90
63202;DHT22;49296;48.188;11.566;2022-10-24T15:10:48;14.87;80.59
63202;DHT22;49296;48.188;11.566;2022-10-24T15:13:15;14.83;80.80
63202;DHT22;49296;48.188;11.566;2022-10-24T15:15:47;14.88;80.84
63202;DHT22;49296;48.188;11.566;2022-10-24T15:18:16;14.79;80.72
63202;DHT22;49296;48.188;11.566;2022-10-24T15:20:43;14.84;80.25
63202;DHT22;49296;48.188;11.566;2022-10-24T15:23:15;14.83;80.36
63202;DHT22;49296;48.188;11.566;2022-10-24T15:25:44;14.88;80.07
63202;DHT22;49296;48.188;11.566;2022-10-24T15:30:54;14.84;79.54
63202;DHT22;49296;48.188;11.566;2022-10-24T15:33:20;14.95;79.71
63202;DHT22;49296;48.188;11.566;2022-10-24T15:35:47;14.95;79.66
63202;DHT22;49296;48.188;11.566;2022-10-24T15:38:14;14.93;79.79
63202;DHT22;49296;48.188;11.566;2022-10-24T15:40:41;14.97;79.57
63202;DHT22;49296;48.188;11.566;2022-10-24T15:43:09;14.98;79.20